createdAt,value
2018-11-20T00:02:06.748Z,99.90
2018-11-20T00:04:52.852Z,99.90
2018-11-20T00:07:40.267Z,99.90
2018-11-20T00:10:26.132Z,99.90
2018-11-20T00:16:02.095Z,99.90
2018-11-20T00:18:49.062Z,99.90
2018-11-20T00:21:30.551Z,99.90
2018-11-20T00:24:18.565Z,99.90
2018-11-20T00:27:18.183Z,99.90
2018-11-20T00:29:58.129Z,99.90
2018-11-20T00:33:03.357Z,99.90
2018-11-20T00:36:05.533Z,99.90
2018-11-20T00:38:51.739Z,99.90
2018-11-20T00:41:45.254Z,99.90
2018-11-20T00:44:38.621Z,99.90
2018-11-20T00:47:26.068Z,99.90
2018-11-20T00:50:11.890Z,99.90
2018-11-20T00:53:17.488Z,99.90
2018-11-20T00:56:31.557Z,99.90
2018-11-20T00:59:20.561Z,99.90
2018-11-20T01:02:14.004Z,99.90
2018-11-20T01:05:01.459Z,99.90
2018-11-20T01:07:47.375Z,99.90
2018-11-20T01:10:33.417Z,99.90
2018-11-20T01:13:10.336Z,99.90
2018-11-20T01:15:58.030Z,99.90
2018-11-20T01:18:48.174Z,99.90
2018-11-20T01:21:35.642Z,99.90
2018-11-20T01:30:07.794Z,99.90
2018-11-20T01:32:53.659Z,99.90
2018-11-20T01:35:41.820Z,99.90
2018-11-20T01:38:20.044Z,99.90
2018-11-20T01:41:07.639Z,99.90
2018-11-20T01:44:01.262Z,99.90
2018-11-20T01:46:40.747Z,99.90
2018-11-20T01:49:34.204Z,99.90
2018-11-20T01:52:20.296Z,99.90
2018-11-20T01:54:54.840Z,99.90
2018-11-20T01:57:35.356Z,99.90
2018-11-20T02:00:31.655Z,99.90
2018-11-20T02:03:17.355Z,99.90
2018-11-20T02:06:04.839Z,99.90
2018-11-20T02:08:50.714Z,99.90
2018-11-20T02:14:25.057Z,99.90
2018-11-20T02:20:04.366Z,99.90
2018-11-20T02:22:57.697Z,99.90
2018-11-20T02:25:45.137Z,99.90
2018-11-20T02:28:38.177Z,99.90
2018-11-20T02:34:02.103Z,99.90
2018-11-20T02:40:03.829Z,99.90
2018-11-20T02:43:00.039Z,99.90
2018-11-20T02:45:53.241Z,99.90
2018-11-20T02:48:40.909Z,99.90
2018-11-20T02:51:34.296Z,99.90
2018-11-20T02:54:19.137Z,99.90
2018-11-20T02:57:21.372Z,99.90
2018-11-20T03:00:10.704Z,99.90
2018-11-20T03:03:12.849Z,99.90
2018-11-20T03:05:55.704Z,99.90
2018-11-20T03:08:51.755Z,99.90
2018-11-20T03:11:37.596Z,99.90
2018-11-20T03:14:23.733Z,99.90
2018-11-20T03:17:09.997Z,99.90
2018-11-20T03:19:56.116Z,99.90
2018-11-20T03:22:43.576Z,99.90
2018-11-20T03:26:04.207Z,99.90
2018-11-20T03:28:56.697Z,99.90
2018-11-20T03:31:44.138Z,99.90
2018-11-20T03:34:30.031Z,99.90
2018-11-20T03:37:07.406Z,99.90
2018-11-20T03:40:00.684Z,99.90
2018-11-20T03:42:50.865Z,99.90
2018-11-20T03:45:47.145Z,99.90
2018-11-20T03:51:14.889Z,99.90
2018-11-20T03:54:00.269Z,99.90
2018-11-20T03:56:47.745Z,99.90
2018-11-20T03:59:33.375Z,99.90
2018-11-20T04:02:13.639Z,99.90
2018-11-20T04:07:58.600Z,99.90
2018-11-20T04:10:54.703Z,99.90
2018-11-20T04:13:40.743Z,99.90
2018-11-20T04:16:28.244Z,99.90
2018-11-20T04:19:15.719Z,99.90
2018-11-20T04:25:03.585Z,99.90
2018-11-20T04:28:02.775Z,99.90
2018-11-20T04:31:24.624Z,99.90
2018-11-20T04:34:02.566Z,99.90
2018-11-20T04:36:45.573Z,99.90
2018-11-20T04:39:47.986Z,99.90
2018-11-20T04:42:47.241Z,99.90
2018-11-20T04:45:34.697Z,99.90
2018-11-20T04:48:10.383Z,99.90
2018-11-20T04:51:09.628Z,99.90
2018-11-20T04:54:09.101Z,99.90
2018-11-20T04:56:55.099Z,99.90
2018-11-20T04:59:41.189Z,99.90
2018-11-20T05:02:21.367Z,99.90
2018-11-20T05:05:07.490Z,99.90
2018-11-20T05:07:54.960Z,99.90
2018-11-20T05:10:46.026Z,99.90
2018-11-20T05:13:42.171Z,99.90
2018-11-20T05:16:27.666Z,99.90
2018-11-20T05:19:33.380Z,99.90
2018-11-20T05:22:19.267Z,99.90
2018-11-20T05:25:09.253Z,99.90
2018-11-20T05:27:56.997Z,99.90
2018-11-20T05:30:44.455Z,99.90
2018-11-20T05:33:37.970Z,99.90
2018-11-20T05:39:27.475Z,99.90
2018-11-20T05:42:14.931Z,99.90
2018-11-20T05:47:38.589Z,99.90
2018-11-20T05:53:13.264Z,99.90
2018-11-20T05:58:39.090Z,99.90
2018-11-20T06:01:44.469Z,99.90
2018-11-20T06:04:49.656Z,99.90
2018-11-20T06:07:51.860Z,99.90
2018-11-20T06:10:37.920Z,99.90
2018-11-20T06:13:13.884Z,99.90
2018-11-20T06:16:03.090Z,99.90
2018-11-20T06:18:56.748Z,99.90
2018-11-20T06:21:42.495Z,99.90
2018-11-20T06:24:32.028Z,99.90
2018-11-20T06:27:34.442Z,99.90
2018-11-20T06:30:28.039Z,99.90
2018-11-20T06:33:14.173Z,99.90
2018-11-20T06:36:01.641Z,99.90
2018-11-20T06:38:47.394Z,99.90
2018-11-20T06:41:33.777Z,99.90
2018-11-20T06:44:19.832Z,99.90
2018-11-20T06:47:05.989Z,99.90
2018-11-20T06:49:44.021Z,99.90
2018-11-20T06:52:30.301Z,99.90
2018-11-20T06:55:20.755Z,99.90
2018-11-20T06:58:06.456Z,99.90
2018-11-20T07:00:52.203Z,99.90
2018-11-20T07:03:38.283Z,99.90
2018-11-20T07:06:40.433Z,99.90
2018-11-20T07:09:30.693Z,99.90
2018-11-20T07:12:27.111Z,99.90
2018-11-20T07:15:03.393Z,99.90
2018-11-20T07:17:54.206Z,99.90
2018-11-20T07:20:50.298Z,99.90
2018-11-20T07:23:43.541Z,99.90
2018-11-20T07:26:33.951Z,99.90
2018-11-20T07:29:26.489Z,99.90
2018-11-20T07:32:28.978Z,99.90
2018-11-20T07:35:34.632Z,99.90
2018-11-20T07:38:40.345Z,99.90
2018-11-20T07:41:25.354Z,99.90
2018-11-20T07:44:13.422Z,99.90
2018-11-20T07:47:06.557Z,99.90
2018-11-20T07:49:54.480Z,99.90
2018-11-20T07:52:56.910Z,99.90
2018-11-20T07:55:42.980Z,99.90
2018-11-20T07:58:33.376Z,99.90
2018-11-20T08:01:12.740Z,99.90
2018-11-20T08:03:46.457Z,99.90
2018-11-20T08:06:36.926Z,99.90
2018-11-20T08:09:29.888Z,99.90
2018-11-20T08:12:13.617Z,99.90
2018-11-20T08:14:55.935Z,99.90
2018-11-20T08:17:31.336Z,99.90
2018-11-20T08:20:11.473Z,99.90
2018-11-20T08:22:57.677Z,99.90
2018-11-20T08:25:53.443Z,99.90
2018-11-20T08:28:39.225Z,99.90
2018-11-20T08:31:19.554Z,99.90
2018-11-20T08:34:05.593Z,99.90
2018-11-20T08:37:02.147Z,99.90
2018-11-20T08:40:01.424Z,99.90
2018-11-20T08:42:48.890Z,99.90
2018-11-20T08:45:39.105Z,99.90
2018-11-20T08:48:20.427Z,99.90
2018-11-20T08:51:06.251Z,99.90
2018-11-20T08:54:02.798Z,99.90
2018-11-20T08:56:45.267Z,99.90
2018-11-20T08:59:21.954Z,99.90
2018-11-20T09:02:09.568Z,99.90
2018-11-20T09:04:55.745Z,99.90
2018-11-20T09:07:51.274Z,99.90
2018-11-20T09:10:38.062Z,99.90
2018-11-20T09:13:23.909Z,99.90
2018-11-20T09:16:10.697Z,99.90
2018-11-20T09:19:03.881Z,99.90
2018-11-20T09:21:44.205Z,99.90
2018-11-20T09:24:24.603Z,99.90
2018-11-20T09:27:15.007Z,99.90
2018-11-20T09:30:01.156Z,99.90
2018-11-20T09:32:47.386Z,99.90
2018-11-20T09:35:33.266Z,99.90
2018-11-20T09:38:23.533Z,99.90
2018-11-20T09:41:16.798Z,99.90
2018-11-20T09:44:30.914Z,99.90
2018-11-20T09:47:27.235Z,99.90
2018-11-20T09:50:14.809Z,99.90
2018-11-20T09:53:20.383Z,99.90
2018-11-20T09:56:16.722Z,99.90
2018-11-20T09:59:02.712Z,99.90
2018-11-20T10:01:48.784Z,99.90
2018-11-20T10:04:27.375Z,99.90
2018-11-20T10:07:17.413Z,99.90
2018-11-20T10:10:03.487Z,99.90
2018-11-20T10:12:49.608Z,99.90
2018-11-20T10:15:49.326Z,99.90
2018-11-20T10:18:35.467Z,99.90
2018-11-20T10:21:23.134Z,99.70
2018-11-20T10:24:08.893Z,99.90
2018-11-20T10:26:56.367Z,99.90
2018-11-20T10:29:56.968Z,99.90
2018-11-20T10:32:42.920Z,99.80
2018-11-20T10:35:33.037Z,99.90
2018-11-20T10:38:22.241Z,99.90
2018-11-20T10:41:08.311Z,99.90
2018-11-20T10:43:58.783Z,99.80
2018-11-20T10:46:44.718Z,99.80
2018-11-20T10:49:49.750Z,99.90
2018-11-20T10:52:40.174Z,99.80
2018-11-20T10:55:26.093Z,99.90
2018-11-20T10:58:28.727Z,99.90
2018-11-20T11:01:14.717Z,99.80
2018-11-20T11:04:14.402Z,99.90
2018-11-20T11:07:16.723Z,99.90
2018-11-20T11:09:49.175Z,99.80
2018-11-20T11:12:34.873Z,99.80
2018-11-20T11:15:21.042Z,99.70
2018-11-20T11:18:09.616Z,99.70
2018-11-20T11:20:56.431Z,99.80
2018-11-20T11:23:43.846Z,99.80
2018-11-20T11:26:37.097Z,99.60
2018-11-20T11:29:25.579Z,99.70
2018-11-20T11:32:28.025Z,99.40
2018-11-20T11:35:15.494Z,99.40
2018-11-20T11:38:02.958Z,99.40
2018-11-20T11:40:51.106Z,99.50
2018-11-20T11:43:37.459Z,99.50
2018-11-20T11:46:39.418Z,99.40
2018-11-20T11:49:27.360Z,99.30
2018-11-20T11:52:14.799Z,99.20
2018-11-20T11:55:10.818Z,99.30
2018-11-20T11:57:56.862Z,99.20
2018-11-20T12:00:59.552Z,99.10
2018-11-20T12:03:39.318Z,99.20
2018-11-20T12:06:29.026Z,99.10
2018-11-20T12:09:22.592Z,99.90
2018-11-20T12:12:25.231Z,99.90
2018-11-20T12:15:12.691Z,99.90
2018-11-20T12:17:53.873Z,99.90
2018-11-20T12:20:33.305Z,99.90
2018-11-20T12:23:20.763Z,99.90
2018-11-20T12:26:07.007Z,99.90
2018-11-20T12:28:57.953Z,99.90
2018-11-20T12:31:40.173Z,99.90
2018-11-20T12:34:26.106Z,98.90
2018-11-20T12:37:28.844Z,98.90
2018-11-20T12:40:32.854Z,98.30
2018-11-20T12:43:30.592Z,98.40
2018-11-20T12:46:24.087Z,98.70
2018-11-20T12:49:11.561Z,98.90
2018-11-20T12:52:07.635Z,98.30
2018-11-20T12:55:10.087Z,98.20
2018-11-20T12:57:57.644Z,98.20
2018-11-20T13:00:43.627Z,98.20
2018-11-20T13:03:33.711Z,97.90
2018-11-20T13:06:33.049Z,97.70
2018-11-20T13:09:10.945Z,97.90
2018-11-20T13:11:58.420Z,97.90
2018-11-20T13:15:03.878Z,98.00
2018-11-20T13:18:00.304Z,97.60
2018-11-20T13:20:46.315Z,98.00
2018-11-20T13:23:32.454Z,99.00
2018-11-20T13:26:22.902Z,98.00
2018-11-20T13:29:08.561Z,98.00
2018-11-20T13:32:10.804Z,97.90
2018-11-20T13:35:01.252Z,98.20
2018-11-20T13:38:00.891Z,98.00
2018-11-20T13:41:23.593Z,98.30
2018-11-20T13:44:17.206Z,98.10
2018-11-20T13:47:04.805Z,99.00
2018-11-20T13:49:45.604Z,97.90
2018-11-20T13:52:33.159Z,98.10
2018-11-20T13:55:20.663Z,97.90
2018-11-20T13:58:11.126Z,98.00
2018-11-20T14:00:57.018Z,97.80
2018-11-20T14:03:52.259Z,97.80
2018-11-20T14:06:50.298Z,97.90
2018-11-20T14:09:52.643Z,97.70
2018-11-20T14:12:39.252Z,97.90
2018-11-20T14:15:35.875Z,97.70
2018-11-20T14:18:35.429Z,98.00
2018-11-20T14:21:22.878Z,98.30
2018-11-20T14:24:19.114Z,98.30
2018-11-20T14:27:04.388Z,98.20
2018-11-20T14:29:57.930Z,97.90
2018-11-20T14:32:43.703Z,97.90
2018-11-20T14:35:34.348Z,97.90
2018-11-20T14:38:24.325Z,98.00
2018-11-20T14:41:09.113Z,98.00
2018-11-20T14:43:56.534Z,97.90
2018-11-20T14:46:36.862Z,97.90
2018-11-20T14:49:23.024Z,98.20
2018-11-20T14:52:20.163Z,98.00
2018-11-20T14:55:03.598Z,98.00
2018-11-20T14:57:51.076Z,97.90
2018-11-20T15:00:37.788Z,98.00
2018-11-20T15:03:25.356Z,98.10
2018-11-20T15:06:30.657Z,98.20
2018-11-20T15:09:28.409Z,98.40
2018-11-20T15:12:15.837Z,98.40
2018-11-20T15:15:00.966Z,98.50
2018-11-20T15:17:48.407Z,98.70
2018-11-20T15:20:38.919Z,99.00
2018-11-20T15:23:35.575Z,99.30
2018-11-20T15:26:31.854Z,99.70
2018-11-20T15:29:17.985Z,99.90
2018-11-20T15:32:11.511Z,99.90
2018-11-20T15:35:01.720Z,99.90
2018-11-20T15:37:39.426Z,99.90
2018-11-20T15:40:39.607Z,99.90
2018-11-20T15:43:32.534Z,99.90
2018-11-20T15:46:18.374Z,99.90
2018-11-20T15:49:04.518Z,99.90
2018-11-20T15:51:50.700Z,99.90
2018-11-20T15:54:31.483Z,99.90
2018-11-20T15:57:28.089Z,99.90
2018-11-20T16:00:13.984Z,99.90
2018-11-20T16:03:07.685Z,99.90
2018-11-20T16:05:53.623Z,99.90
2018-11-20T16:08:39.789Z,99.90
2018-11-20T16:11:45.073Z,99.90
2018-11-20T16:14:21.522Z,99.90
2018-11-20T16:17:01.924Z,99.90
2018-11-20T16:19:52.144Z,99.90
2018-11-20T16:22:51.482Z,99.90
2018-11-20T16:25:41.787Z,99.90
2018-11-20T16:28:27.702Z,99.90
2018-11-20T16:31:13.901Z,99.90
2018-11-20T16:34:01.654Z,99.90
2018-11-20T16:36:52.180Z,99.90
2018-11-20T16:39:38.026Z,99.90
2018-11-20T16:42:25.513Z,99.90
2018-11-20T16:45:11.531Z,99.90
2018-11-20T16:47:59.010Z,99.90
2018-11-20T16:50:46.597Z,99.90
2018-11-20T16:53:43.183Z,99.90
2018-11-20T16:56:42.599Z,99.90
2018-11-20T16:59:30.136Z,99.90
2018-11-20T17:02:20.614Z,99.90
2018-11-20T17:05:11.043Z,99.90
2018-11-20T17:08:01.197Z,99.90
2018-11-20T17:10:46.792Z,99.90
2018-11-20T17:13:30.887Z,99.90
2018-11-20T17:16:33.540Z,99.90
2018-11-20T17:19:29.667Z,99.90
2018-11-20T17:22:15.641Z,99.90
2018-11-20T17:25:01.939Z,99.90
2018-11-20T17:27:55.315Z,99.90
2018-11-20T17:30:38.729Z,99.90
2018-11-20T17:33:26.191Z,99.90
2018-11-20T17:36:12.286Z,99.90
2018-11-20T17:38:59.750Z,99.90
2018-11-20T17:41:49.766Z,99.90
2018-11-20T17:44:42.787Z,99.90
2018-11-20T17:47:33.396Z,99.90
2018-11-20T17:50:29.839Z,99.90
2018-11-20T17:53:18.337Z,99.90
2018-11-20T17:56:04.230Z,99.90
2018-11-20T17:58:47.875Z,99.90
2018-11-20T18:01:38.320Z,99.90
2018-11-20T18:04:28.742Z,99.90
2018-11-20T18:07:19.422Z,99.90
2018-11-20T18:10:06.866Z,99.90
2018-11-20T18:12:57.793Z,99.90
2018-11-20T18:15:57.208Z,99.90
2018-11-20T18:18:41.067Z,99.90
2018-11-20T18:21:24.584Z,99.90
2018-11-20T18:24:23.322Z,99.90
2018-11-20T18:27:18.675Z,99.90
2018-11-20T18:30:08.183Z,99.90
2018-11-20T18:32:54.300Z,99.90
2018-11-20T18:35:39.943Z,99.90
2018-11-20T18:38:27.394Z,99.90
2018-11-20T18:41:13.266Z,99.90
2018-11-20T18:44:02.835Z,99.90
2018-11-20T18:46:40.114Z,99.90
2018-11-20T18:49:39.811Z,99.90
2018-11-20T18:52:27.291Z,99.90
2018-11-20T18:55:20.798Z,99.90
2018-11-20T18:58:06.838Z,99.90
2018-11-20T19:00:52.987Z,99.90
2018-11-20T19:03:39.126Z,99.90
2018-11-20T19:06:44.788Z,99.90
2018-11-20T19:09:30.555Z,99.90
2018-11-20T19:12:16.822Z,99.90
2018-11-20T19:15:07.008Z,99.90
2018-11-20T19:17:54.511Z,99.90
2018-11-20T19:20:39.017Z,99.90
2018-11-20T19:23:35.458Z,99.90
2018-11-20T19:26:40.909Z,99.90
2018-11-20T19:29:34.237Z,99.90
2018-11-20T19:32:27.657Z,99.90
2018-11-20T19:35:15.144Z,99.90
2018-11-20T19:38:01.050Z,99.90
2018-11-20T19:40:54.557Z,99.90
2018-11-20T19:43:45.047Z,99.90
2018-11-20T19:46:50.727Z,99.90
2018-11-20T19:49:36.642Z,99.90
2018-11-20T19:52:29.041Z,99.90
2018-11-20T19:55:19.395Z,99.90
2018-11-20T19:58:05.782Z,99.90
2018-11-20T20:00:58.010Z,99.90
2018-11-20T20:03:48.453Z,99.90
2018-11-20T20:06:35.944Z,99.90
2018-11-20T20:09:24.566Z,99.90
2018-11-20T20:12:30.358Z,99.90
2018-11-20T20:15:29.920Z,99.90
2018-11-20T20:18:15.845Z,99.90
2018-11-20T20:21:12.295Z,99.90
2018-11-20T20:24:05.855Z,99.90
2018-11-20T20:27:11.067Z,99.90
2018-11-20T20:29:56.768Z,99.90
2018-11-20T20:33:02.453Z,99.90
2018-11-20T20:35:48.427Z,99.90
2018-11-20T20:38:51.109Z,99.90
2018-11-20T20:41:37.207Z,99.90
2018-11-20T20:44:23.422Z,99.90
2018-11-20T20:47:09.592Z,99.90
2018-11-20T20:50:06.314Z,99.90
2018-11-20T20:52:56.720Z,99.90
2018-11-20T20:55:47.199Z,99.90
2018-11-20T20:58:23.731Z,99.90
2018-11-20T21:01:20.358Z,99.90
2018-11-20T21:04:09.678Z,99.90
2018-11-20T21:07:12.105Z,99.90
2018-11-20T21:09:57.766Z,99.90
2018-11-20T21:12:43.738Z,99.90
2018-11-20T21:15:33.653Z,99.90
2018-11-20T21:18:19.483Z,99.90
2018-11-20T21:21:05.104Z,99.90
2018-11-20T21:23:52.553Z,99.90
2018-11-20T21:26:58.194Z,99.90
2018-11-20T21:29:51.402Z,99.90
2018-11-20T21:32:37.231Z,99.90
2018-11-20T21:35:22.993Z,99.90
2018-11-20T21:38:16.469Z,99.90
2018-11-20T21:41:18.890Z,99.90
2018-11-20T21:44:18.258Z,99.90
2018-11-20T21:47:03.999Z,99.90
2018-11-20T21:49:51.673Z,99.90
2018-11-20T21:52:44.675Z,99.90
2018-11-20T21:55:32.164Z,99.90
2018-11-20T21:58:31.524Z,99.90
2018-11-20T22:01:24.262Z,99.90
2018-11-20T22:04:26.686Z,99.90
2018-11-20T22:07:12.560Z,99.90
2018-11-20T22:09:58.240Z,99.90
2018-11-20T22:12:52.192Z,99.90
2018-11-20T22:15:38.193Z,99.90
2018-11-20T22:24:59.877Z,99.90
2018-11-20T22:28:04.537Z,99.90
2018-11-20T22:30:51.335Z,99.90
2018-11-20T22:33:53.009Z,99.90
2018-11-20T22:36:38.319Z,99.90
2018-11-20T22:39:25.455Z,99.90
2018-11-20T22:42:10.485Z,99.90
2018-11-20T22:44:57.149Z,99.90
2018-11-20T22:47:49.510Z,99.90
2018-11-20T22:50:39.131Z,99.90
2018-11-20T22:53:24.457Z,99.90
2018-11-20T22:56:06.142Z,99.90
2018-11-20T22:58:51.370Z,99.90
2018-11-20T23:01:43.889Z,99.90
2018-11-20T23:04:30.585Z,99.90
2018-11-20T23:07:20.211Z,99.90
2018-11-20T23:09:47.322Z,99.90
2018-11-20T23:12:14.459Z,99.90
2018-11-20T23:14:41.601Z,99.90
2018-11-20T23:17:08.684Z,99.90
2018-11-20T23:19:35.789Z,99.90
2018-11-20T23:22:02.876Z,99.90
2018-11-20T23:24:30.018Z,99.90
2018-11-20T23:26:57.126Z,99.90
2018-11-20T23:29:24.261Z,99.90
2018-11-20T23:31:51.371Z,99.90
2018-11-20T23:34:18.493Z,99.90
2018-11-20T23:36:45.595Z,99.90
2018-11-20T23:39:12.709Z,99.90
2018-11-20T23:41:39.782Z,99.90
2018-11-20T23:44:06.907Z,99.90
2018-11-20T23:46:34.001Z,99.90
2018-11-20T23:49:01.097Z,99.90
2018-11-20T23:51:28.193Z,99.90
2018-11-20T23:53:55.277Z,99.90
2018-11-20T23:56:22.391Z,99.90
2018-11-20T23:58:49.491Z,99.90
